Time;durP1;ratioP1;P1;durP2;ratioP2;P2;SDS_P1;SDS_P2;PMS_P1;PMS_P2;Temp;Humidity;BMP_temperature;BMP_pressure;BME280_temperature;BME280_humidity;BME280_pressure;Samples;Min_cycle;Max_cycle;Signal;HPM_P1;HPM_P2
2022/04/20 00:00:11;;;;;;;;;;;;;;;;;;338125;29;859;-18
2022/04/20 00:00:21;;;;;;;;;;;;;;;;;;338034;29;994;-17
2022/04/20 00:00:33;;;;;;;;;;;;;;;;;;338089;29;846;-18
2022/04/20 00:00:43;;;;;;;;;;;;;;;;;;338114;29;980;-17
2022/04/20 00:00:53;;;;;;;;;;;;;;;;;;337925;29;1608;-17
2022/04/20 00:01:03;;;;;;;;;;;;;;;;;;337751;29;796;-17
2022/04/20 00:01:14;;;;;;;;;;;;;;;;;;337857;29;971;-17
2022/04/20 00:01:24;;;;;;;;;;;;;;;;;;338092;29;954;-17
2022/04/20 00:01:34;;;;;;;;;;;;;;;;;;338038;29;839;-16
2022/04/20 00:01:45;;;;;;;;;;;;;;;;;;338157;29;910;-16
2022/04/20 00:01:55;;;;;;;;;;;;;;;;;;337800;29;1105;-17
2022/04/20 00:02:07;;;;;;;;;;;;;;;;;;337745;29;804;-16
2022/04/20 00:02:18;;;;;;;;;;;;;;;;;;337918;29;934;-17
2022/04/20 00:02:28;;;;;;;;;;;;;;;;;;337874;29;1102;-17
2022/04/20 00:02:38;;;;;;;;;;;;;;;;;;338030;28;838;-17
2022/04/20 00:02:48;;;;;;;;;;;;;;;;;;338033;28;937;-17
2022/04/20 00:02:59;;;;;;;;;;;;;;;;;;337452;28;1156;-17
2022/04/20 00:03:09;;;;;;;;;;;;;;;;;;337865;29;851;-16
2022/04/20 00:03:19;;;;;;;;;;;;;;;;;;337892;29;819;-26
2022/04/20 00:03:31;;;;;;;;;;;;;;;;;;337981;29;887;-18
2022/04/20 00:03:41;;;;;;;;;;;;;;;;;;337866;29;958;-17
2022/04/20 00:03:52;;;;;;;;;;;;;;;;;;337817;29;950;-18
2022/04/20 00:04:02;;;;;;;;;;;;;;;;;;337410;28;1730;-17
2022/04/20 00:04:12;;;;;;;;;;;;;;;;;;337981;29;790;-19
2022/04/20 00:04:23;;;;;;;;;;;;;;;;;;337885;28;965;-17
2022/04/20 00:04:33;;;;;;;;;;;;;;;;;;337889;29;949;-16
2022/04/20 00:04:44;;;;;;;;;;;;;;;;;;337976;29;867;-18
2022/04/20 00:04:55;;;;;;;;;;;;;;;;;;337673;29;1001;-17
2022/04/20 00:05:05;;;;;;;;;;;;;;;;;;337595;28;1163;-17
2022/04/20 00:05:16;;;;;;;;;;;;;;;;;;337797;28;1911;-17
2022/04/20 00:05:26;;;;;;;;;;;;;;;;;;338082;29;931;-18
2022/04/20 00:05:36;;;;;;;;;;;;;;;;;;338003;29;866;-17
2022/04/20 00:05:47;;;;;;;;;;;;;;;;;;337944;28;967;-17
2022/04/20 00:05:57;;;;;;;;;;;;;;;;;;337708;28;894;-18
2022/04/20 00:06:08;;;;;;;;;;;;;;;;;;338045;29;807;-18
2022/04/20 00:06:18;;;;;;;;;;;;;;;;;;337760;29;893;-17
2022/04/20 00:06:30;;;;;;;;;;;;;;;;;;337721;28;957;-17
2022/04/20 00:06:40;;;;;;;;;;;;;;;;;;337959;28;934;-17
2022/04/20 00:06:51;;;;;;;;;;;;;;;;;;337952;29;804;-21
2022/04/20 00:07:01;;;;;;;;;;;;;;;;;;337579;29;899;-27
2022/04/20 00:07:12;;;;;;;;;;;;;;;;;;338141;29;958;-18
2022/04/20 00:07:22;;;;;;;;;;;;;;;;;;338055;29;936;-18
2022/04/20 00:07:33;;;;;;;;;;;;;;;;;;337841;29;1142;-17
2022/04/20 00:07:43;;;;;;;;;;;;;;;;;;337927;28;945;-18
2022/04/20 00:07:54;;;;;;;;;;;;;;;;;;337958;29;1121;-17
2022/04/20 00:08:04;;;;;;;;;;;;;;;;;;337831;29;913;-17
2022/04/20 00:08:15;;;;;;;;;;;;;;;;;;337705;29;1029;-17
2022/04/20 00:08:25;;;;;;;;;;;;;;;;;;338186;29;823;-17
2022/04/20 00:08:35;;;;;;;;;;;;;;;;;;337938;29;930;-17
2022/04/20 00:08:46;;;;;;;;;;;;;;;;;;338077;29;970;-19
2022/04/20 00:08:56;;;;;;;;;;;;;;;;;;337571;29;1167;-17
2022/04/20 00:09:06;;;;;;;;;;;;;;;;;;338003;28;792;-17
2022/04/20 00:09:16;;;;;;;;;;;;;;;;;;337996;29;846;-17
2022/04/20 00:09:27;;;;;;;;;;;;;;;;;;338028;28;910;-16
2022/04/20 00:09:38;;;;;;;;;;;;;;;;;;337974;29;796;-17
2022/04/20 00:09:48;;;;;;;;;;;;;;;;;;338077;28;815;-17
2022/04/20 00:09:59;;;;;;;;;;;;;;;;;;337804;28;911;-17
2022/04/20 00:10:10;;;;;;;;;;;;;;;;;;337848;29;1102;-17
2022/04/20 00:10:20;;;;;;;;;;;;;;;;;;338017;29;863;-17
2022/04/20 00:10:30;;;;;;;;;;;;;;;;;;338022;28;981;-17
2022/04/20 00:10:41;;;;;;;;;;;;;;;;;;338092;29;826;-16
2022/04/20 00:10:51;;;;;;;;;;;;;;;;;;337765;29;1397;-17
2022/04/20 00:11:02;;;;;;;;;;;;;;;;;;337805;28;916;-17
2022/04/20 00:11:12;;;;;;;;;;;;;;;;;;338045;29;978;-17
2022/04/20 00:11:22;;;;;;;;;;;;;;;;;;337956;28;1141;-16
2022/04/20 00:11:33;;;;;;;;;;;;;;;;;;337894;29;874;-18
2022/04/20 00:11:43;;;;;;;;;;;;;;;;;;338066;28;843;-17
2022/04/20 00:11:53;;;;;;;;;;;;;;;;;;338002;29;867;-17
2022/04/20 00:12:04;;;;;;;;;;;;;;;;;;337682;28;1038;-17
2022/04/20 00:12:14;;;;;;;;;;;;;;;;;;338037;29;823;-17
2022/04/20 00:12:25;;;;;;;;;;;;;;;;;;338053;29;950;-18
2022/04/20 00:12:35;;;;;;;;;;;;;;;;;;337991;29;890;-17
2022/04/20 00:12:46;;;;;;;;;;;;;;;;;;337945;29;941;-17
2022/04/20 00:12:56;;;;;;;;;;;;;;;;;;337840;29;886;-18
2022/04/20 00:13:06;;;;;;;;;;;;;;;;;;337889;28;895;-17
2022/04/20 00:13:17;;;;;;;;;;;;;;;;;;337891;29;1071;-17
2022/04/20 00:13:27;;;;;;;;;;;;;;;;;;338173;29;1016;-18
2022/04/20 00:13:38;;;;;;;;;;;;;;;;;;338072;28;808;-18
2022/04/20 00:13:48;;;;;;;;;;;;;;;;;;337811;28;891;-17
2022/04/20 00:13:58;;;;;;;;;;;;;;;;;;337644;28;1191;-17
2022/04/20 00:14:08;;;;;;;;;;;;;;;;;;338041;29;961;-17
2022/04/20 00:14:19;;;;;;;;;;;;;;;;;;337782;29;949;-17
2022/04/20 00:14:29;;;;;;;;;;;;;;;;;;337908;28;720;-17
2022/04/20 00:14:39;;;;;;;;;;;;;;;;;;337789;29;954;-17
2022/04/20 00:14:51;;;;;;;;;;;;;;;;;;337830;28;1007;-17
2022/04/20 00:15:02;;;;;;;;;;;;;;;;;;337687;29;807;-17
2022/04/20 00:15:12;;;;;;;;;;;;;;;;;;337745;29;1114;-17
2022/04/20 00:15:23;;;;;;;;;;;;;;;;;;337909;28;895;-20
2022/04/20 00:15:33;;;;;;;;;;;;;;;;;;337800;28;981;-17
2022/04/20 00:15:43;;;;;;;;;;;;;;;;;;337903;28;925;-17
2022/04/20 00:15:54;;;;;;;;;;;;;;;;;;337594;29;950;-18
2022/04/20 00:16:04;;;;;;;;;;;;;;;;;;337772;29;858;-17
2022/04/20 00:16:15;;;;;;;;;;;;;;;;;;337851;29;907;-17
2022/04/20 00:16:25;;;;;;;;;;;;;;;;;;337861;29;977;-17
2022/04/20 00:16:36;;;;;;;;;;;;;;;;;;339128;28;1039;-17
2022/04/20 00:16:46;;;;;;;;;;;;;;;;;;339246;29;835;-17
2022/04/20 00:16:56;;;;;;;;;;;;;;;;;;338922;29;832;-17
2022/04/20 00:17:06;;;;;;;;;;;;;;;;;;338918;28;950;-17
2022/04/20 00:17:17;;;;;;;;;;;;;;;;;;339201;28;791;-17
2022/04/20 00:17:27;;;;;;;;;;;;;;;;;;339214;28;839;-18
2022/04/20 00:17:37;;;;;;;;;;;;;;;;;;339103;28;961;-18
2022/04/20 00:17:48;;;;;;;;;;;;;;;;;;339132;29;1005;-17
2022/04/20 00:17:58;;;;;;;;;;;;;;;;;;338997;29;946;-18
2022/04/20 00:18:08;;;;;;;;;;;;;;;;;;339102;29;934;-18
2022/04/20 00:18:19;;;;;;;;;;;;;;;;;;339027;28;945;-17
2022/04/20 00:18:29;;;;;;;;;;;;;;;;;;338918;28;1061;-17
2022/04/20 00:18:40;;;;;;;;;;;;;;;;;;337981;28;883;-17
2022/04/20 00:18:50;;;;;;;;;;;;;;;;;;338001;29;851;-18
2022/04/20 00:19:00;;;;;;;;;;;;;;;;;;337624;28;1079;-18
2022/04/20 00:19:11;;;;;;;;;;;;;;;;;;338048;29;1129;-16
2022/04/20 00:19:21;;;;;;;;;;;;;;;;;;337947;29;776;-17
2022/04/20 00:19:31;;;;;;;;;;;;;;;;;;338052;28;1000;-16
2022/04/20 00:19:42;;;;;;;;;;;;;;;;;;337781;29;979;-17
2022/04/20 00:19:52;;;;;;;;;;;;;;;;;;338123;28;970;-17
2022/04/20 00:20:02;;;;;;;;;;;;;;;;;;337735;28;875;-16
2022/04/20 00:20:13;;;;;;;;;;;;;;;;;;337783;28;878;-17
2022/04/20 00:20:23;;;;;;;;;;;;;;;;;;338000;28;862;-17
2022/04/20 00:20:33;;;;;;;;;;;;;;;;;;337989;28;946;-17
2022/04/20 00:20:44;;;;;;;;;;;;;;;;;;338068;28;796;-17
2022/04/20 00:20:54;;;;;;;;;;;;;;;;;;337667;28;1268;-17
2022/04/20 00:21:04;;;;;;;;;;;;;;;;;;337884;29;823;-17
2022/04/20 00:21:14;;;;;;;;;;;;;;;;;;337633;28;830;-16
2022/04/20 00:21:25;;;;;;;;;;;;;;;;;;338106;29;945;-16
2022/04/20 00:21:35;;;;;;;;;;;;;;;;;;337953;28;950;-19
2022/04/20 00:21:45;;;;;;;;;;;;;;;;;;338081;28;891;-17
2022/04/20 00:21:56;;;;;;;;;;;;;;;;;;337983;28;851;-18
2022/04/20 00:22:06;;;;;;;;;;;;;;;;;;337794;29;930;-17
2022/04/20 00:22:17;;;;;;;;;;;;;;;;;;337849;29;1057;-17
2022/04/20 00:22:27;;;;;;;;;;;;;;;;;;338088;28;887;-17
2022/04/20 00:22:37;;;;;;;;;;;;;;;;;;337940;29;961;-17
2022/04/20 00:22:48;;;;;;;;;;;;;;;;;;337887;28;1159;-17
2022/04/20 00:22:58;;;;;;;;;;;;;;;;;;337716;28;847;-17
2022/04/20 00:23:09;;;;;;;;;;;;;;;;;;337930;29;1115;-16
2022/04/20 00:23:19;;;;;;;;;;;;;;;;;;337841;29;915;-18
2022/04/20 00:23:29;;;;;;;;;;;;;;;;;;337988;28;811;-18
2022/04/20 00:23:39;;;;;;;;;;;;;;;;;;338004;28;823;-17
2022/04/20 00:23:50;;;;;;;;;;;;;;;;;;338090;29;820;-17
2022/04/20 00:24:00;;;;;;;;;;;;;;;;;;337707;29;843;-19
2022/04/20 00:24:10;;;;;;;;;;;;;;;;;;337968;28;955;-17
2022/04/20 00:24:21;;;;;;;;;;;;;;;;;;337930;28;819;-17
2022/04/20 00:24:31;;;;;;;;;;;;;;;;;;338060;28;1616;-17
2022/04/20 00:24:41;;;;;;;;;;;;;;;;;;337812;28;786;-17
2022/04/20 00:24:51;;;;;;;;;;;;;;;;;;337931;28;905;-17
2022/04/20 00:25:02;;;;;;;;;;;;;;;;;;337746;29;894;-18
2022/04/20 00:25:12;;;;;;;;;;;;;;;;;;337823;28;1935;-17
2022/04/20 00:25:23;;;;;;;;;;;;;;;;;;337935;28;1042;-18
2022/04/20 00:25:33;;;;;;;;;;;;;;;;;;338029;28;792;-16
2022/04/20 00:25:43;;;;;;;;;;;;;;;;;;338109;28;855;-17
2022/04/20 00:25:54;;;;;;;;;;;;;;;;;;337856;28;842;-17
2022/04/20 00:26:05;;;;;;;;;;;;;;;;;;337687;28;926;-17
2022/04/20 00:26:15;;;;;;;;;;;;;;;;;;337915;28;946;-17
2022/04/20 00:26:25;;;;;;;;;;;;;;;;;;338029;29;890;-17
2022/04/20 00:26:36;;;;;;;;;;;;;;;;;;337942;28;965;-17
2022/04/20 00:26:46;;;;;;;;;;;;;;;;;;337989;28;1229;-17
2022/04/20 00:26:56;;;;;;;;;;;;;;;;;;337845;28;858;-17
2022/04/20 00:27:07;;;;;;;;;;;;;;;;;;338046;29;891;-17
2022/04/20 00:27:17;;;;;;;;;;;;;;;;;;337859;28;892;-17
2022/04/20 00:27:31;;;;;;;;;;;;;;;;;;337992;29;882;-17
2022/04/20 00:27:41;;;;;;;;;;;;;;;;;;337698;29;1148;-19
2022/04/20 00:27:52;;;;;;;;;;;;;;;;;;337880;28;1161;-18
2022/04/20 00:28:02;;;;;;;;;;;;;;;;;;337622;29;819;-17
2022/04/20 00:28:12;;;;;;;;;;;;;;;;;;336474;28;1504;-18
2022/04/20 00:28:23;;;;;;;;;;;;;;;;;;336659;28;884;-17
2022/04/20 00:28:33;;;;;;;;;;;;;;;;;;336184;29;1054;-16
2022/04/20 00:28:43;;;;;;;;;;;;;;;;;;336511;29;982;-17
2022/04/20 00:28:54;;;;;;;;;;;;;;;;;;336334;29;1149;-17
2022/04/20 00:29:04;;;;;;;;;;;;;;;;;;336527;29;836;-17
2022/04/20 00:29:15;;;;;;;;;;;;;;;;;;337659;28;1178;-17
2022/04/20 00:29:25;;;;;;;;;;;;;;;;;;336553;28;1437;-17
2022/04/20 00:29:35;;;;;;;;;;;;;;;;;;337623;28;1331;-17
2022/04/20 00:29:46;;;;;;;;;;;;;;;;;;336448;28;895;-17
2022/04/20 00:29:56;;;;;;;;;;;;;;;;;;336015;29;1111;-17
2022/04/20 00:30:11;;;;;;;;;;;;;;;;;;336208;28;1030;-17
2022/04/20 00:30:21;;;;;;;;;;;;;;;;;;335264;29;896;-17
2022/04/20 00:30:31;;;;;;;;;;;;;;;;;;335193;28;1185;-17
2022/04/20 00:30:42;;;;;;;;;;;;;;;;;;335266;28;1160;-17
2022/04/20 00:30:52;;;;;;;;;;;;;;;;;;335337;29;899;-18
2022/04/20 00:31:02;;;;;;;;;;;;;;;;;;336298;29;899;-18
2022/04/20 00:31:13;;;;;;;;;;;;;;;;;;336335;29;848;-19
2022/04/20 00:31:23;;;;;;;;;;;;;;;;;;336560;28;946;-17
2022/04/20 00:31:33;;;;;;;;;;;;;;;;;;336545;29;934;-17
2022/04/20 00:31:44;;;;;;;;;;;;;;;;;;337415;29;927;-17
2022/04/20 00:31:54;;;;;;;;;;;;;;;;;;336497;29;923;-17
2022/04/20 00:32:04;;;;;;;;;;;;;;;;;;336392;28;870;-23
2022/04/20 00:32:15;;;;;;;;;;;;;;;;;;336479;29;2475;-17
2022/04/20 00:32:25;;;;;;;;;;;;;;;;;;336482;29;935;-17
2022/04/20 00:32:36;;;;;;;;;;;;;;;;;;336598;29;1005;-17
2022/04/20 00:32:46;;;;;;;;;;;;;;;;;;336561;28;811;-17
2022/04/20 00:32:56;;;;;;;;;;;;;;;;;;334975;28;931;-17
2022/04/20 00:33:07;;;;;;;;;;;;;;;;;;335282;28;967;-17
2022/04/20 00:33:17;;;;;;;;;;;;;;;;;;333958;28;832;-17
2022/04/20 00:33:27;;;;;;;;;;;;;;;;;;334001;28;1001;-17
2022/04/20 00:33:38;;;;;;;;;;;;;;;;;;334011;29;923;-17
2022/04/20 00:33:49;;;;;;;;;;;;;;;;;;334667;28;789;-17
2022/04/20 00:34:00;;;;;;;;;;;;;;;;;;334986;29;874;-17
2022/04/20 00:34:10;;;;;;;;;;;;;;;;;;335786;29;773;-16
2022/04/20 00:34:21;;;;;;;;;;;;;;;;;;335175;29;1065;-17
2022/04/20 00:34:31;;;;;;;;;;;;;;;;;;335324;29;1135;-17
2022/04/20 00:34:41;;;;;;;;;;;;;;;;;;335326;29;839;-17
2022/04/20 00:34:52;;;;;;;;;;;;;;;;;;335833;29;962;-17
2022/04/20 00:35:02;;;;;;;;;;;;;;;;;;334878;28;895;-17
2022/04/20 00:35:13;;;;;;;;;;;;;;;;;;335817;28;847;-17
2022/04/20 00:35:23;;;;;;;;;;;;;;;;;;336606;28;844;-17
2022/04/20 00:35:33;;;;;;;;;;;;;;;;;;336354;28;1072;-17
2022/04/20 00:35:44;;;;;;;;;;;;;;;;;;336634;28;879;-17
2022/04/20 00:35:54;;;;;;;;;;;;;;;;;;336477;29;989;-18
2022/04/20 00:36:04;;;;;;;;;;;;;;;;;;336109;29;808;-17
2022/04/20 00:36:15;;;;;;;;;;;;;;;;;;335481;28;1104;-17
2022/04/20 00:36:25;;;;;;;;;;;;;;;;;;335355;28;1172;-17
2022/04/20 00:36:35;;;;;;;;;;;;;;;;;;335101;28;922;-16
2022/04/20 00:36:50;;;;;;;;;;;;;;;;;;335261;28;883;-17
2022/04/20 00:37:01;;;;;;;;;;;;;;;;;;335930;28;1168;-18
2022/04/20 00:37:11;;;;;;;;;;;;;;;;;;336631;29;808;-17
2022/04/20 00:37:21;;;;;;;;;;;;;;;;;;335244;28;876;-18
2022/04/20 00:37:33;;;;;;;;;;;;;;;;;;335191;28;1214;-17
2022/04/20 00:37:43;;;;;;;;;;;;;;;;;;335372;29;1341;-17
2022/04/20 00:37:54;;;;;;;;;;;;;;;;;;335181;28;1050;-18
2022/04/20 00:38:04;;;;;;;;;;;;;;;;;;334880;28;979;-17
2022/04/20 00:38:17;;;;;;;;;;;;;;;;;;336406;28;1671;-17
2022/04/20 00:38:27;;;;;;;;;;;;;;;;;;335317;28;959;-17
2022/04/20 00:38:38;;;;;;;;;;;;;;;;;;335320;29;827;-17
2022/04/20 00:38:48;;;;;;;;;;;;;;;;;;335030;28;1297;-17
2022/04/20 00:38:58;;;;;;;;;;;;;;;;;;335959;29;867;-17
2022/04/20 00:39:09;;;;;;;;;;;;;;;;;;336662;29;923;-17
2022/04/20 00:39:19;;;;;;;;;;;;;;;;;;335731;28;823;-17
2022/04/20 00:39:30;;;;;;;;;;;;;;;;;;336611;29;764;-17
2022/04/20 00:39:40;;;;;;;;;;;;;;;;;;335263;28;812;-17
2022/04/20 00:39:51;;;;;;;;;;;;;;;;;;335335;29;761;-17
2022/04/20 00:40:02;;;;;;;;;;;;;;;;;;334941;29;943;-16
2022/04/20 00:40:13;;;;;;;;;;;;;;;;;;335981;29;791;-17
2022/04/20 00:40:23;;;;;;;;;;;;;;;;;;336619;28;1055;-17
2022/04/20 00:40:33;;;;;;;;;;;;;;;;;;336462;29;772;-17
2022/04/20 00:40:45;;;;;;;;;;;;;;;;;;335051;29;946;-17
2022/04/20 00:40:56;;;;;;;;;;;;;;;;;;335302;29;906;-17
2022/04/20 00:41:08;;;;;;;;;;;;;;;;;;335489;28;827;-17
2022/04/20 00:41:18;;;;;;;;;;;;;;;;;;336008;29;887;-17
2022/04/20 00:41:28;;;;;;;;;;;;;;;;;;336696;29;788;-17
2022/04/20 00:41:39;;;;;;;;;;;;;;;;;;337563;28;1418;-17
2022/04/20 00:41:50;;;;;;;;;;;;;;;;;;337771;28;756;-17
2022/04/20 00:42:01;;;;;;;;;;;;;;;;;;337480;29;970;-18
2022/04/20 00:42:11;;;;;;;;;;;;;;;;;;337951;29;918;-17
2022/04/20 00:42:22;;;;;;;;;;;;;;;;;;337799;28;794;-17
2022/04/20 00:42:34;;;;;;;;;;;;;;;;;;337685;28;1065;-18
2022/04/20 00:42:44;;;;;;;;;;;;;;;;;;337931;28;806;-17
2022/04/20 00:42:55;;;;;;;;;;;;;;;;;;337844;28;839;-17
2022/04/20 00:43:05;;;;;;;;;;;;;;;;;;337567;28;834;-17
2022/04/20 00:43:16;;;;;;;;;;;;;;;;;;337647;29;1046;-17
2022/04/20 00:43:28;;;;;;;;;;;;;;;;;;337631;29;815;-17
2022/04/20 00:43:38;;;;;;;;;;;;;;;;;;337913;28;854;-23
2022/04/20 00:43:48;;;;;;;;;;;;;;;;;;337856;29;891;-16
2022/04/20 00:44:00;;;;;;;;;;;;;;;;;;337835;29;842;-17
2022/04/20 00:44:10;;;;;;;;;;;;;;;;;;337877;28;1746;-17
2022/04/20 00:44:21;;;;;;;;;;;;;;;;;;337827;29;819;-17
2022/04/20 00:44:32;;;;;;;;;;;;;;;;;;336455;28;1176;-17
2022/04/20 00:44:42;;;;;;;;;;;;;;;;;;336542;29;882;-17
2022/04/20 00:44:54;;;;;;;;;;;;;;;;;;336483;29;823;-17
2022/04/20 00:45:05;;;;;;;;;;;;;;;;;;336358;29;947;-17
2022/04/20 00:45:15;;;;;;;;;;;;;;;;;;336376;28;1943;-17
2022/04/20 00:45:27;;;;;;;;;;;;;;;;;;336673;29;815;-17
2022/04/20 00:45:37;;;;;;;;;;;;;;;;;;336574;29;957;-17
2022/04/20 00:45:49;;;;;;;;;;;;;;;;;;336379;28;981;-18
2022/04/20 00:46:00;;;;;;;;;;;;;;;;;;336254;29;858;-18
2022/04/20 00:46:10;;;;;;;;;;;;;;;;;;337656;29;1439;-17
2022/04/20 00:46:23;;;;;;;;;;;;;;;;;;337721;29;1106;-17
2022/04/20 00:46:33;;;;;;;;;;;;;;;;;;337841;28;1156;-17
2022/04/20 00:46:45;;;;;;;;;;;;;;;;;;337788;28;894;-18
2022/04/20 00:46:56;;;;;;;;;;;;;;;;;;337673;29;958;-17
2022/04/20 00:47:09;;;;;;;;;;;;;;;;;;337936;29;776;-17
2022/04/20 00:47:19;;;;;;;;;;;;;;;;;;336335;28;1256;-17
2022/04/20 00:47:30;;;;;;;;;;;;;;;;;;336546;29;1446;-17
2022/04/20 00:47:42;;;;;;;;;;;;;;;;;;336432;28;919;-16
2022/04/20 00:47:56;;;;;;;;;;;;;;;;;;336575;28;1209;-17
2022/04/20 00:48:09;;;;;;;;;;;;;;;;;;337363;29;787;-16
2022/04/20 00:48:20;;;;;;;;;;;;;;;;;;336396;29;1252;-17
2022/04/20 00:48:31;;;;;;;;;;;;;;;;;;337866;29;831;-17
2022/04/20 00:48:42;;;;;;;;;;;;;;;;;;336549;28;1194;-17
2022/04/20 00:48:53;;;;;;;;;;;;;;;;;;336229;28;1179;-17
2022/04/20 00:49:05;;;;;;;;;;;;;;;;;;337662;29;1188;-17
2022/04/20 00:49:16;;;;;;;;;;;;;;;;;;337775;28;977;-17
2022/04/20 00:49:26;;;;;;;;;;;;;;;;;;337935;29;811;-17
2022/04/20 00:49:39;;;;;;;;;;;;;;;;;;337690;28;2361;-17
2022/04/20 00:49:49;;;;;;;;;;;;;;;;;;337827;28;866;-17
2022/04/20 00:49:59;;;;;;;;;;;;;;;;;;336208;28;1387;-17
2022/04/20 00:50:11;;;;;;;;;;;;;;;;;;335212;28;1649;-16
2022/04/20 00:50:22;;;;;;;;;;;;;;;;;;335220;29;784;-17
2022/04/20 00:50:32;;;;;;;;;;;;;;;;;;335273;28;1072;-17
2022/04/20 00:50:43;;;;;;;;;;;;;;;;;;333940;29;733;-16
2022/04/20 00:50:53;;;;;;;;;;;;;;;;;;334796;29;1097;-17
2022/04/20 00:51:04;;;;;;;;;;;;;;;;;;335074;28;799;-17
2022/04/20 00:51:15;;;;;;;;;;;;;;;;;;335153;28;1196;-16
2022/04/20 00:51:25;;;;;;;;;;;;;;;;;;335196;29;835;-17
2022/04/20 00:51:35;;;;;;;;;;;;;;;;;;336094;29;855;-17
2022/04/20 00:51:58;;;;;;;;;;;;;;;;;;336486;28;1292;-17
2022/04/20 00:52:10;;;;;;;;;;;;;;;;;;338986;28;968;-18
2022/04/20 00:52:22;;;;;;;;;;;;;;;;;;337685;28;1395;-17
2022/04/20 00:52:33;;;;;;;;;;;;;;;;;;337676;28;1593;-17
2022/04/20 00:52:43;;;;;;;;;;;;;;;;;;336497;28;1004;-17
2022/04/20 00:52:56;;;;;;;;;;;;;;;;;;336299;29;1701;-17
2022/04/20 00:53:06;;;;;;;;;;;;;;;;;;337854;28;1152;-16
2022/04/20 00:53:17;;;;;;;;;;;;;;;;;;337786;29;834;-17
2022/04/20 00:53:27;;;;;;;;;;;;;;;;;;335098;29;1044;-17
2022/04/20 00:53:39;;;;;;;;;;;;;;;;;;335226;29;1734;-16
2022/04/20 00:53:50;;;;;;;;;;;;;;;;;;333900;29;1168;-17
2022/04/20 00:54:02;;;;;;;;;;;;;;;;;;333445;28;1173;-17
2022/04/20 00:54:12;;;;;;;;;;;;;;;;;;334061;29;792;-17
2022/04/20 00:54:23;;;;;;;;;;;;;;;;;;334032;29;807;-17
2022/04/20 00:54:34;;;;;;;;;;;;;;;;;;333918;29;964;-17
2022/04/20 00:54:44;;;;;;;;;;;;;;;;;;336529;29;1275;-17
2022/04/20 00:54:55;;;;;;;;;;;;;;;;;;337549;29;1172;-17
2022/04/20 00:55:06;;;;;;;;;;;;;;;;;;337680;29;973;-17
2022/04/20 00:55:17;;;;;;;;;;;;;;;;;;336318;28;1156;-17
2022/04/20 00:55:27;;;;;;;;;;;;;;;;;;336647;28;827;-17
2022/04/20 00:55:37;;;;;;;;;;;;;;;;;;336569;28;830;-17
2022/04/20 00:55:52;;;;;;;;;;;;;;;;;;333948;28;1172;-17
2022/04/20 00:56:03;;;;;;;;;;;;;;;;;;333900;28;1142;-17
2022/04/20 00:56:14;;;;;;;;;;;;;;;;;;334010;28;809;-17
2022/04/20 00:56:24;;;;;;;;;;;;;;;;;;333967;29;811;-17
2022/04/20 00:56:35;;;;;;;;;;;;;;;;;;333706;28;1027;-18
2022/04/20 00:56:45;;;;;;;;;;;;;;;;;;334129;28;839;-17
2022/04/20 00:56:55;;;;;;;;;;;;;;;;;;333773;29;1290;-18
2022/04/20 00:57:07;;;;;;;;;;;;;;;;;;335240;28;1212;-17
2022/04/20 00:57:18;;;;;;;;;;;;;;;;;;335216;28;1477;-17
2022/04/20 00:57:29;;;;;;;;;;;;;;;;;;335107;28;1613;-17
2022/04/20 00:57:39;;;;;;;;;;;;;;;;;;335234;29;812;-17
2022/04/20 00:57:53;;;;;;;;;;;;;;;;;;333759;28;1010;-17
2022/04/20 00:58:03;;;;;;;;;;;;;;;;;;333751;28;1253;-17
2022/04/20 00:58:16;;;;;;;;;;;;;;;;;;335022;28;1476;-17
2022/04/20 00:58:27;;;;;;;;;;;;;;;;;;333830;28;1151;-17
2022/04/20 00:58:40;;;;;;;;;;;;;;;;;;335268;29;1641;-16
2022/04/20 00:58:50;;;;;;;;;;;;;;;;;;335275;28;1219;-17
2022/04/20 00:59:01;;;;;;;;;;;;;;;;;;334860;29;871;-17
2022/04/20 00:59:13;;;;;;;;;;;;;;;;;;336295;29;1262;-17
2022/04/20 00:59:24;;;;;;;;;;;;;;;;;;335260;29;1345;-17
2022/04/20 00:59:36;;;;;;;;;;;;;;;;;;336402;28;1177;-17
2022/04/20 00:59:48;;;;;;;;;;;;;;;;;;336471;28;1052;-17
2022/04/20 00:59:59;;;;;;;;;;;;;;;;;;336252;28;820;-17
2022/04/20 01:00:11;;;;;;;;;;;;;;;;;;335341;28;1534;-17
2022/04/20 01:00:31;;;;;;;;;;;;;;;;;;335207;28;1494;-18
2022/04/20 01:00:42;;;;;;;;;;;;;;;;;;333879;29;1274;-17
2022/04/20 01:00:52;;;;;;;;;;;;;;;;;;333976;29;808;-17
2022/04/20 01:01:03;;;;;;;;;;;;;;;;;;336192;28;1035;-17
2022/04/20 01:01:14;;;;;;;;;;;;;;;;;;335249;28;1031;-17
2022/04/20 01:01:26;;;;;;;;;;;;;;;;;;335277;29;836;-17
2022/04/20 01:01:37;;;;;;;;;;;;;;;;;;334961;29;1441;-16
2022/04/20 01:01:48;;;;;;;;;;;;;;;;;;335233;29;942;-16
2022/04/20 01:01:59;;;;;;;;;;;;;;;;;;334864;29;1300;-17
2022/04/20 01:02:09;;;;;;;;;;;;;;;;;;335196;29;1189;-16
2022/04/20 01:02:21;;;;;;;;;;;;;;;;;;335220;29;922;-17
2022/04/20 01:02:34;;;;;;;;;;;;;;;;;;333940;29;1374;-17
2022/04/20 01:02:44;;;;;;;;;;;;;;;;;;333923;29;1185;-16
2022/04/20 01:02:56;;;;;;;;;;;;;;;;;;336295;29;1539;-17
2022/04/20 01:03:07;;;;;;;;;;;;;;;;;;336372;28;1163;-17
2022/04/20 01:03:37;;;;;;;;;;;;;;;;;;336462;29;1372;-16
2022/04/20 01:04:08;;;;;;;;;;;;;;;;;;338662;29;1609;-16
2022/04/20 01:04:38;;;;;;;;;;;;;;;;;;337861;29;1414;-17
2022/04/20 01:05:01;;;;;;;;;;;;;;;;;;337591;29;1153;-16
2022/04/20 01:05:38;;;;;;;;;;;;;;;;;;342967;28;1234;-17
2022/04/20 01:06:11;;;;;;;;;;;;;;;;;;340442;29;979;-17
2022/04/20 01:06:49;;;;;;;;;;;;;;;;;;338894;29;1130;-17
2022/04/20 01:07:37;;;;;;;;;;;;;;;;;;340450;29;1055;-17
2022/04/20 01:08:00;;;;;;;;;;;;;;;;;;340114;29;886;-16
2022/04/20 01:08:37;;;;;;;;;;;;;;;;;;338930;29;987;-18
2022/04/20 01:09:05;;;;;;;;;;;;;;;;;;338655;29;2180;-17
2022/04/20 01:09:31;;;;;;;;;;;;;;;;;;338719;29;1301;-17
2022/04/20 01:09:51;;;;;;;;;;;;;;;;;;339043;29;917;-18
2022/04/20 01:10:24;;;;;;;;;;;;;;;;;;337822;29;649;-17
2022/04/20 01:11:13;;;;;;;;;;;;;;;;;;341608;28;967;-17
2022/04/20 01:11:50;;;;;;;;;;;;;;;;;;337502;29;1797;-17
2022/04/20 01:12:17;;;;;;;;;;;;;;;;;;337814;29;980;-18
2022/04/20 01:12:57;;;;;;;;;;;;;;;;;;337377;29;724;-18
2022/04/20 01:13:39;;;;;;;;;;;;;;;;;;334998;29;946;-17
2022/04/20 01:14:02;;;;;;;;;;;;;;;;;;334938;29;1320;-17
2022/04/20 01:14:31;;;;;;;;;;;;;;;;;;335252;29;610;-18
2022/04/20 01:14:54;;;;;;;;;;;;;;;;;;336188;29;1084;-17
2022/04/20 01:15:23;;;;;;;;;;;;;;;;;;339171;29;641;-17
2022/04/20 01:15:57;;;;;;;;;;;;;;;;;;343093;28;724;-17
2022/04/20 01:16:22;;;;;;;;;;;;;;;;;;337755;29;1495;-16
2022/04/20 01:16:50;;;;;;;;;;;;;;;;;;338884;29;1244;-16
2022/04/20 01:17:11;;;;;;;;;;;;;;;;;;337680;29;864;-16
2022/04/20 01:17:37;;;;;;;;;;;;;;;;;;336446;29;1263;-17
2022/04/20 01:17:56;;;;;;;;;;;;;;;;;;336359;29;776;-17
2022/04/20 01:18:44;;;;;;;;;;;;;;;;;;344712;28;751;-17
2022/04/20 01:19:16;;;;;;;;;;;;;;;;;;344480;28;1344;-18
2022/04/20 01:19:38;;;;;;;;;;;;;;;;;;342181;28;1217;-17
2022/04/20 01:20:14;;;;;;;;;;;;;;;;;;336444;29;1002;-16
2022/04/20 01:20:35;;;;;;;;;;;;;;;;;;336666;29;914;-17
2022/04/20 01:21:07;;;;;;;;;;;;;;;;;;336208;29;1047;-17
2022/04/20 01:21:35;;;;;;;;;;;;;;;;;;338063;29;681;-18
2022/04/20 01:22:09;;;;;;;;;;;;;;;;;;337757;29;713;-21
2022/04/20 01:22:33;;;;;;;;;;;;;;;;;;337518;29;1094;-18
2022/04/20 01:22:56;;;;;;;;;;;;;;;;;;337802;29;1251;-16
2022/04/20 01:23:27;;;;;;;;;;;;;;;;;;337836;28;1246;-17
2022/04/20 01:23:56;;;;;;;;;;;;;;;;;;337583;29;1047;-18
2022/04/20 01:24:17;;;;;;;;;;;;;;;;;;336500;29;1290;-17
2022/04/20 01:24:27;;;;;;;;;;;;;;;;;;336679;29;1141;-17
2022/04/20 01:25:04;;;;;;;;;;;;;;;;;;336351;29;1158;-16
2022/04/20 01:25:22;;;;;;;;;;;;;;;;;;335321;29;1639;-17
2022/04/20 01:25:54;;;;;;;;;;;;;;;;;;335208;29;1324;-17
2022/04/20 01:26:16;;;;;;;;;;;;;;;;;;335200;29;1199;-17
2022/04/20 01:26:45;;;;;;;;;;;;;;;;;;335216;29;685;-17
2022/04/20 01:27:08;;;;;;;;;;;;;;;;;;335111;29;1274;-17
2022/04/20 01:27:51;;;;;;;;;;;;;;;;;;341412;28;713;-18
2022/04/20 01:28:24;;;;;;;;;;;;;;;;;;341327;28;1580;-17
2022/04/20 01:28:50;;;;;;;;;;;;;;;;;;337710;29;2384;-17
2022/04/20 01:29:12;;;;;;;;;;;;;;;;;;339121;29;1311;-17
2022/04/20 01:29:40;;;;;;;;;;;;;;;;;;337702;29;1176;-17
2022/04/20 01:30:13;;;;;;;;;;;;;;;;;;337160;29;1236;-24
2022/04/20 01:30:42;;;;;;;;;;;;;;;;;;337721;29;602;-18
2022/04/20 01:31:24;;;;;;;;;;;;;;;;;;343277;28;727;-18
2022/04/20 01:31:54;;;;;;;;;;;;;;;;;;344434;28;708;-17
2022/04/20 01:32:23;;;;;;;;;;;;;;;;;;344204;28;1330;-17
2022/04/20 01:32:55;;;;;;;;;;;;;;;;;;336309;29;1377;-18
2022/04/20 01:33:17;;;;;;;;;;;;;;;;;;336559;29;1164;-17
2022/04/20 01:33:32;;;;;;;;;;;;;;;;;;336436;29;1264;-17
2022/04/20 01:33:43;;;;;;;;;;;;;;;;;;336543;29;962;-16
2022/04/20 01:33:53;;;;;;;;;;;;;;;;;;337619;29;1149;-17
2022/04/20 01:34:03;;;;;;;;;;;;;;;;;;336226;29;1497;-16
2022/04/20 01:34:14;;;;;;;;;;;;;;;;;;337682;29;1352;-17
2022/04/20 01:34:24;;;;;;;;;;;;;;;;;;337848;29;862;-17
2022/04/20 01:34:35;;;;;;;;;;;;;;;;;;337792;29;1162;-17
2022/04/20 01:34:45;;;;;;;;;;;;;;;;;;336223;29;1335;-17
2022/04/20 01:34:56;;;;;;;;;;;;;;;;;;335088;29;1141;-17
2022/04/20 01:35:06;;;;;;;;;;;;;;;;;;333691;29;1118;-17
2022/04/20 01:35:17;;;;;;;;;;;;;;;;;;336176;29;1171;-17
2022/04/20 01:35:27;;;;;;;;;;;;;;;;;;337791;29;1263;-17
2022/04/20 01:35:38;;;;;;;;;;;;;;;;;;337606;29;1310;-17
2022/04/20 01:35:48;;;;;;;;;;;;;;;;;;336377;29;1187;-17
2022/04/20 01:35:58;;;;;;;;;;;;;;;;;;336267;29;1101;-17
2022/04/20 01:36:09;;;;;;;;;;;;;;;;;;335258;29;1430;-17